Time;durP1;ratioP1;P1;durP2;ratioP2;P2;SDS_P1;SDS_P2;PMS_P1;PMS_P2;Temp;Humidity;BMP_temperature;BMP_pressure;BME280_temperature;BME280_humidity;BME280_pressure;Samples;Min_cycle;Max_cycle;Signal;HPM_P1;HPM_P2
2021/04/28 00:04:43;;;;;;;11.45;3.63;;;;;;;;;;10097980;28;20566;-58
2021/04/28 00:09:45;;;;;;;6.22;3.35;;;;;;;;;;10099548;28;20051;-62
2021/04/28 00:14:47;;;;;;;6.75;2.92;;;7.50;53.30;;;;;;10095567;28;20089;-60
2021/04/28 00:19:48;;;;;;;9.45;3.80;;;;;;;;;;10094363;28;20081;-61
2021/04/28 00:24:50;;;;;;;8.57;3.55;;;;;;;;;;10097511;28;20054;-61
2021/04/28 00:29:52;;;;;;;5.47;3.80;;;7.00;55.80;;;;;;10097195;28;20729;-61
2021/04/28 00:34:54;;;;;;;5.15;3.22;;;;;;;;;;10095227;28;20834;-60
2021/04/28 00:39:56;;;;;;;7.63;3.90;;;;;;;;;;10097734;28;20133;-61
2021/04/28 00:44:59;;;;;;;4.63;3.40;;;6.90;58.20;;;;;;10097448;28;20607;-61
2021/04/28 00:50:00;;;;;;;7.25;3.33;;;;;;;;;;10096845;28;20475;-62
2021/04/28 00:55:05;;;;;;;6.97;4.03;;;6.70;59.80;;;;;;10098629;28;20526;-59
2021/04/28 01:00:11;;;;;;;5.43;4.15;;;6.70;60.40;;;;;;10096420;28;20182;-60
2021/04/28 01:05:14;;;;;;;4.65;3.35;;;6.70;61.60;;;;;;10095780;28;20517;-58
2021/04/28 01:10:17;;;;;;;5.72;4.00;;;6.50;62.00;;;;;;10096525;28;20495;-59
2021/04/28 01:15:22;;;;;;;4.93;3.35;;;7.70;62.80;;;;;;10102521;28;20051;-60
2021/04/28 01:20:25;;;;;;;7.95;3.63;;;6.40;62.30;;;;;;10104795;28;21334;-59
2021/04/28 01:25:28;;;;;;;7.50;3.95;;;6.40;63.10;;;;;;10101835;28;20062;-61
2021/04/28 01:30:33;;;;;;;8.27;4.40;;;6.40;63.50;;;;;;10106187;28;21331;-60
2021/04/28 01:35:37;;;;;;;6.88;3.88;;;6.50;63.20;;;;;;10103328;28;20054;-59
2021/04/28 01:40:40;;;;;;;5.63;4.13;;;6.40;63.70;;;;;;10102112;28;20181;-58
2021/04/28 01:45:42;;;;;;;10.35;4.15;;;;;;;;;;10101162;28;20090;-61
2021/04/28 01:50:45;;;;;;;12.77;4.10;;;6.30;64.60;;;;;;10104933;28;22022;-60
2021/04/28 01:55:49;;;;;;;4.97;3.70;;;6.30;65.10;;;;;;10104338;28;20776;-60
2021/04/28 02:00:52;;;;;;;6.10;3.83;;;6.30;65.40;;;;;;10102039;28;20766;-59
2021/04/28 02:05:54;;;;;;;6.03;4.10;;;6.00;65.50;;;;;;10106252;28;20146;-61
2021/04/28 02:10:58;;;;;;;5.40;3.92;;;6.10;65.70;;;;;;10105186;28;20581;-59
2021/04/28 02:16:01;;;;;;;12.02;3.72;;;6.20;66.60;;;;;;10102150;28;20085;-60
2021/04/28 02:21:03;;;;;;;4.45;3.63;;;6.10;66.40;;;;;;10104638;28;20074;-60
2021/04/28 02:26:06;;;;;;;7.10;4.40;;;6.00;66.30;;;;;;10102395;28;20499;-59
2021/04/28 02:31:07;;;;;;;11.07;4.10;;;;;;;;;;10102845;28;20903;-59
2021/04/28 02:36:10;;;;;;;11.88;4.35;;;6.70;67.10;;;;;;10100832;28;20728;-60
2021/04/28 02:41:13;;;;;;;4.57;3.67;;;5.70;66.70;;;;;;10100416;28;21715;-61
2021/04/28 02:46:16;;;;;;;10.80;4.43;;;5.70;67.50;;;;;;10098370;28;20069;-60
2021/04/28 02:51:17;;;;;;;;;;;5.80;68.00;;;;;;10102636;28;20082;-61
2021/04/28 02:56:20;;;;;;;5.80;4.15;;;5.70;68.10;;;;;;10100476;28;21133;-60
2021/04/28 03:01:22;;;;;;;7.50;4.50;;;5.60;68.20;;;;;;10101937;28;20086;-60
2021/04/28 03:06:24;;;;;;;8.83;5.50;;;;;;;;;;10101837;28;20527;-60
2021/04/28 03:11:27;;;;;;;5.85;4.65;;;5.50;68.90;;;;;;10101838;28;20188;-59
2021/04/28 03:16:29;;;;;;;6.13;4.35;;;;;;;;;;10100038;28;20059;-59
2021/04/28 03:21:34;;;;;;;8.05;4.20;;;5.40;69.30;;;;;;10102825;28;20043;-57
2021/04/28 03:26:36;;;;;;;6.70;3.97;;;5.40;69.50;;;;;;10101790;28;21703;-58
2021/04/28 03:31:38;;;;;;;7.97;4.50;;;;;;;;;;10105166;28;20156;-58
2021/04/28 03:36:40;;;;;;;9.27;4.32;;;;;;;;;;10099858;28;20736;-60
2021/04/28 03:41:42;;;;;;;13.18;4.25;;;5.40;70.40;;;;;;10102772;28;20105;-58
2021/04/28 03:46:43;;;;;;;6.13;4.25;;;;;;;;;;10101507;28;20062;-59
2021/04/28 03:51:45;;;;;;;9.32;4.47;;;;;;;;;;10099932;28;20059;-59
2021/04/28 03:56:47;;;;;;;15.05;4.30;;;5.30;71.00;;;;;;10097874;28;21801;-58
2021/04/28 04:01:49;;;;;;;10.43;4.43;;;;;;;;;;10096113;28;20050;-60
2021/04/28 04:06:51;;;;;;;7.47;4.10;;;;;;;;;;10098338;28;20151;-60
2021/04/28 04:11:53;;;;;;;12.15;4.80;;;5.20;70.80;;;;;;10100205;28;20090;-60
2021/04/28 04:16:54;;;;;;;11.48;4.43;;;;;;;;;;10101941;28;21263;-59
2021/04/28 04:21:56;;;;;;;5.55;4.10;;;;;;;;;;10104227;28;20483;-60
2021/04/28 04:26:58;;;;;;;9.00;4.28;;;5.40;69.90;;;;;;10101772;28;20483;-59
2021/04/28 04:32:00;;;;;;;6.13;4.07;;;;;;;;;;10100215;28;20082;-60
2021/04/28 04:37:02;;;;;;;8.88;4.25;;;;;;;;;;10100608;28;20077;-60
2021/04/28 04:42:05;;;;;;;11.27;4.80;;;5.60;68.80;;;;;;10098495;28;20085;-59
2021/04/28 04:47:07;;;;;;;9.73;3.65;;;;;;;;;;10097775;28;20066;-60
2021/04/28 04:52:08;;;;;;;5.65;4.15;;;;;;;;;;10099795;28;20511;-59
2021/04/28 04:57:11;;;;;;;6.03;4.32;;;6.10;66.50;;;;;;10098857;28;20045;-58
2021/04/28 05:02:13;;;;;;;7.45;5.00;;;;;;;;;;10096182;28;20047;-58
2021/04/28 05:07:14;;;;;;;6.05;4.20;;;;;;;;;;10094534;28;20094;-58
2021/04/28 05:12:16;;;;;;;6.57;4.28;;;9.90;57.10;;;;;;10094979;28;20388;-60
2021/04/28 05:17:18;;;;;;;15.55;4.70;;;12.70;44.10;;;;;;10091508;28;20185;-59
2021/04/28 05:22:22;;;;;;;11.15;4.47;;;12.80;43.60;;;;;;10094033;28;20059;-57
2021/04/28 05:27:26;;;;;;;8.35;4.35;;;14.90;38.90;;;;;;10091873;28;20066;-62
2021/04/28 05:32:27;;;;;;;6.80;4.28;;;16.20;35.70;;;;;;10090526;28;20133;-63
2021/04/28 05:37:28;;;;;;;10.23;4.65;;;17.20;33.70;;;;;;10098143;28;21398;-63
2021/04/28 05:42:31;;;;;;;5.90;4.07;;;18.00;31.90;;;;;;10099536;28;20063;-62
2021/04/28 05:47:32;;;;;;;10.25;4.32;;;18.90;30.70;;;;;;10098059;28;20075;-62
2021/04/28 05:52:34;;;;;;;5.38;4.60;;;19.80;29.60;;;;;;10097626;28;20571;-63
2021/04/28 05:57:36;;;;;;;7.77;4.67;;;20.40;28.60;;;;;;10092223;28;20573;-62
2021/04/28 06:02:38;;;;;;;9.38;4.90;;;21.50;28.10;;;;;;10105105;28;20067;-63
2021/04/28 06:07:39;;;;;;;13.77;5.33;;;22.20;27.20;;;;;;10103726;28;20747;-62
2021/04/28 06:12:41;;;;;;;7.77;5.30;;;22.70;26.30;;;;;;10100867;28;20442;-63
2021/04/28 06:17:43;;;;;;;8.88;4.97;;;23.00;26.00;;;;;;10100890;28;21121;-63
2021/04/28 06:22:45;;;;;;;7.97;4.65;;;23.90;25.60;;;;;;10102389;28;20058;-61
2021/04/28 06:27:47;;;;;;;5.80;4.45;;;24.50;24.80;;;;;;10098476;28;20050;-63
2021/04/28 06:32:49;;;;;;;7.13;4.40;;;24.50;24.50;;;;;;10102524;28;20053;-63
2021/04/28 06:37:50;;;;;;;6.90;4.70;;;25.30;24.10;;;;;;10102919;28;20134;-63
2021/04/28 06:42:52;;;;;;;7.30;4.97;;;25.50;23.70;;;;;;10101277;28;20582;-61
2021/04/28 06:47:54;;;;;;;6.60;4.80;;;26.00;23.60;;;;;;10099868;28;20051;-61
2021/04/28 06:52:55;;;;;;;;;;;26.40;23.50;;;;;;10101365;28;21949;-62
2021/04/28 06:57:58;;;;;;;12.70;4.72;;;26.30;23.60;;;;;;10099949;28;19931;-62
2021/04/28 07:02:59;;;;;;;10.32;4.53;;;26.60;23.10;;;;;;10100832;28;21502;-62
2021/04/28 07:08:00;;;;;;;;;;;27.20;23.20;;;;;;10101352;28;20047;-61
2021/04/28 07:13:05;;;;;;;14.50;4.45;;;28.00;23.20;;;;;;10103024;28;19930;-63
2021/04/28 07:18:07;;;;;;;8.75;4.38;;;28.50;22.60;;;;;;10104565;28;20062;-63
2021/04/28 07:23:09;;;;;;;10.02;4.90;;;29.00;22.30;;;;;;10101932;28;20869;-62
2021/04/28 07:28:11;;;;;;;8.63;4.82;;;29.50;22.80;;;;;;10099892;28;20456;-61
2021/04/28 07:33:12;;;;;;;9.00;4.85;;;30.60;23.00;;;;;;10096465;28;20062;-62
2021/04/28 07:38:14;;;;;;;8.63;4.38;;;29.00;22.40;;;;;;10100716;28;20062;-62
2021/04/28 07:43:16;;;;;;;7.57;4.20;;;31.50;22.70;;;;;;10100006;28;20050;-62
2021/04/28 07:48:18;;;;;;;8.90;4.05;;;30.10;21.80;;;;;;10101201;28;20058;-63
2021/04/28 07:53:19;;;;;;;11.52;4.65;;;26.60;21.70;;;;;;10097581;28;21699;-62
2021/04/28 07:58:23;;;;;;;9.45;4.18;;;30.40;23.00;;;;;;10098856;28;20074;-63
2021/04/28 08:03:24;;;;;;;16.13;4.53;;;29.30;21.80;;;;;;10096841;28;21370;-63
2021/04/28 08:08:26;;;;;;;7.55;4.72;;;31.30;22.30;;;;;;10096145;28;20055;-62
2021/04/28 08:13:28;;;;;;;10.27;4.85;;;27.20;22.20;;;;;;10099455;28;20055;-63
2021/04/28 08:18:30;;;;;;;6.60;4.95;;;25.20;23.70;;;;;;10097274;28;20086;-63
2021/04/28 08:23:31;;;;;;;11.65;5.38;;;24.40;23.90;;;;;;10096947;28;20043;-63
2021/04/28 08:28:39;;;;;;;6.68;5.18;;;22.70;25.10;;;;;;10097490;28;21627;-62
2021/04/28 08:33:41;;;;;;;5.10;4.50;;;23.60;24.90;;;;;;10095139;28;20117;-63
2021/04/28 08:38:42;;;;;;;14.32;5.65;;;24.90;23.90;;;;;;10095793;28;20070;-62
2021/04/28 08:43:45;;;;;;;6.22;4.68;;;23.60;24.60;;;;;;10096735;28;20101;-63
2021/04/28 08:48:46;;;;;;;6.85;4.65;;;24.30;24.40;;;;;;10098132;28;20077;-62
2021/04/28 08:53:49;;;;;;;7.90;5.00;;;24.60;24.10;;;;;;10095744;28;20075;-63
2021/04/28 08:58:53;;;;;;;8.10;5.65;;;25.80;23.70;;;;;;10097056;28;20636;-62
2021/04/28 09:03:57;;;;;;;11.63;5.57;;;25.50;23.60;;;;;;10100066;28;20050;-63
2021/04/28 09:09:05;;;;;;;6.80;5.20;;;25.30;23.60;;;;;;10100926;28;20795;-61
2021/04/28 09:14:11;;;;;;;9.65;4.57;;;26.50;23.20;;;;;;10098735;28;20716;-63
2021/04/28 09:19:22;;;;;;;7.60;5.22;;;26.60;23.00;;;;;;10097747;28;20051;-60
2021/04/28 09:24:25;;;;;;;8.68;4.57;;;25.70;23.40;;;;;;10096217;28;20341;-65
2021/04/28 09:29:29;;;;;;;8.38;4.50;;;25.80;23.20;;;;;;10094433;28;20102;-65
2021/04/28 09:34:33;;;;;;;8.23;4.82;;;25.40;23.40;;;;;;10101705;28;20058;-64
2021/04/28 09:39:40;;;;;;;9.10;5.40;;;25.30;23.20;;;;;;10106857;28;20531;-64
2021/04/28 09:44:48;;;;;;;6.40;5.00;;;25.40;23.00;;;;;;10103386;28;21084;-65
2021/04/28 09:49:55;;;;;;;9.82;5.22;;;26.90;23.70;;;;;;10102680;28;20495;-64
2021/04/28 09:54:59;;;;;;;8.80;5.15;;;25.40;22.80;;;;;;10104406;28;21894;-64
2021/04/28 10:00:04;;;;;;;6.53;5.50;;;23.90;25.40;;;;;;10104117;28;20051;-64
2021/04/28 10:05:16;;;;;;;11.50;5.03;;;24.10;24.00;;;;;;10102776;28;20057;-65
2021/04/28 10:10:19;;;;;;;10.70;4.82;;;24.80;23.60;;;;;;10101693;28;20047;-62
2021/04/28 10:15:21;;;;;;;9.98;5.60;;;25.10;23.40;;;;;;10103609;28;20714;-64
2021/04/28 10:20:23;;;;;;;6.80;5.43;;;25.20;23.50;;;;;;10100874;28;20757;-64
2021/04/28 10:25:25;;;;;;;6.50;5.80;;;23.90;24.10;;;;;;10102670;28;20058;-64
2021/04/28 10:30:28;;;;;;;6.63;5.80;;;22.70;26.20;;;;;;10104960;28;20901;-64
2021/04/28 10:35:29;;;;;;;9.60;6.35;;;23.50;26.60;;;;;;10100225;28;20152;-63
2021/04/28 10:40:31;;;;;;;13.30;6.25;;;23.70;25.20;;;;;;10103910;28;20070;-64
2021/04/28 10:45:37;;;;;;;12.52;5.57;;;23.80;27.00;;;;;;10105136;28;20051;-64
2021/04/28 10:50:42;;;;;;;13.27;6.38;;;23.70;25.40;;;;;;10105469;28;20097;-63
2021/04/28 10:55:53;;;;;;;11.55;7.03;;;22.40;27.40;;;;;;10099928;28;20150;-62
2021/04/28 11:01:32;;;;;;;15.20;6.70;;;22.10;28.30;;;;;;10102804;28;21124;-63
2021/04/28 11:06:34;;;;;;;8.45;7.03;;;22.00;26.80;;;;;;10100188;28;21604;-63
2021/04/28 11:11:42;;;;;;;11.05;7.40;;;21.90;28.50;;;;;;10098671;28;20054;-63
2021/04/28 11:16:45;;;;;;;11.68;7.45;;;22.40;28.90;;;;;;10095385;28;21259;-64
2021/04/28 11:21:48;;;;;;;12.13;6.88;;;22.00;26.90;;;;;;10100206;28;20055;-65
2021/04/28 11:26:52;;;;;;;12.50;7.97;;;21.90;27.00;;;;;;10096224;28;20860;-65
2021/04/28 11:31:55;;;;;;;9.52;7.15;;;21.60;27.00;;;;;;10098259;28;20070;-64
2021/04/28 11:36:59;;;;;;;10.18;7.22;;;20.90;27.90;;;;;;10100029;28;20920;-64
2021/04/28 11:42:05;;;;;;;12.27;7.05;;;20.90;27.60;;;;;;10101350;28;20763;-62
2021/04/28 11:47:11;;;;;;;13.95;7.20;;;20.80;27.90;;;;;;10098861;28;20137;-62
2021/04/28 11:52:13;;;;;;;12.45;7.43;;;20.90;27.70;;;;;;10101484;28;21612;-61
2021/04/28 11:57:14;;;;;;;10.65;7.80;;;21.00;28.00;;;;;;10099353;28;20706;-63
2021/04/28 12:02:16;;;;;;;11.60;7.03;;;21.30;27.90;;;;;;10099791;28;20532;-62
2021/04/28 12:07:19;;;;;;;26.52;9.45;;;21.30;27.90;;;;;;10102653;28;22581;-61
2021/04/28 12:12:23;;;;;;;14.43;7.75;;;21.60;27.70;;;;;;10103909;28;22636;-62
2021/04/28 12:17:26;;;;;;;12.38;8.90;;;21.40;28.20;;;;;;10101330;28;20419;-63
2021/04/28 12:22:28;;;;;;;19.60;7.95;;;21.20;28.20;;;;;;10097697;28;20059;-63
2021/04/28 12:27:31;;;;;;;9.65;7.82;;;21.10;28.50;;;;;;10098438;28;21053;-64
2021/04/28 12:32:36;;;;;;;13.65;8.02;;;21.30;28.60;;;;;;10095446;28;21609;-63
2021/04/28 12:37:38;;;;;;;14.35;8.30;;;21.10;29.00;;;;;;10099192;28;20090;-63
2021/04/28 12:42:41;;;;;;;13.55;7.47;;;21.00;29.10;;;;;;10096318;28;21515;-64
2021/04/28 12:47:43;;;;;;;11.32;7.82;;;20.70;30.00;;;;;;10096544;28;20089;-63
2021/04/28 12:52:45;;;;;;;14.15;8.80;;;20.40;29.70;;;;;;10098293;28;20051;-63
2021/04/28 12:57:52;;;;;;;13.52;8.85;;;20.00;30.50;;;;;;10096580;28;20051;-64
2021/04/28 13:03:12;;;;;;;13.70;8.00;;;19.70;31.00;;;;;;10097980;28;20073;-63
2021/04/28 13:08:28;;;;;;;15.75;8.65;;;19.50;31.30;;;;;;10094410;28;20126;-62
2021/04/28 13:13:31;;;;;;;11.52;7.85;;;19.60;30.80;;;;;;10101191;28;21362;-63
2021/04/28 13:18:49;;;;;;;11.63;8.15;;;19.40;31.00;;;;;;10096887;28;20137;-62
2021/04/28 13:24:21;;;;;;;15.98;8.95;;;19.30;31.50;;;;;;10095657;28;20265;-60
2021/04/28 13:29:22;;;;;;;18.55;8.80;;;18.10;31.20;;;;;;10100208;28;20513;-62
2021/04/28 13:34:29;;;;;;;16.70;7.97;;;18.90;31.70;;;;;;10097007;28;20074;-60
2021/04/28 13:39:32;;;;;;;13.90;8.82;;;19.30;30.60;;;;;;10095490;28;20063;-62
2021/04/28 13:44:35;;;;;;;16.77;8.88;;;19.50;30.00;;;;;;10098009;28;20526;-62
2021/04/28 13:49:38;;;;;;;13.50;7.55;;;19.50;30.00;;;;;;10097922;28;20058;-62
2021/04/28 13:54:40;;;;;;;12.32;7.88;;;19.70;29.90;;;;;;10097037;28;20047;-62
2021/04/28 13:59:41;;;;;;;13.10;8.53;;;19.80;29.50;;;;;;10096095;28;20051;-63
2021/04/28 14:04:43;;;;;;;10.40;7.77;;;19.80;30.00;;;;;;10097635;28;20050;-62
2021/04/28 14:09:45;;;;;;;14.52;7.95;;;19.70;29.50;;;;;;10094166;28;20125;-63
2021/04/28 14:14:46;;;;;;;11.47;7.97;;;19.80;29.60;;;;;;10095182;28;21660;-62
2021/04/28 14:19:48;;;;;;;14.03;7.97;;;20.10;29.30;;;;;;10100371;28;20474;-62
2021/04/28 14:24:51;;;;;;;;;;;20.30;29.10;;;;;;10102314;28;20066;-62
2021/04/28 14:29:52;;;;;;;;;;;20.50;28.70;;;;;;10103056;28;20834;-61
2021/04/28 14:34:54;;;;;;;16.38;8.05;;;20.60;28.40;;;;;;10101310;28;20066;-65
2021/04/28 14:39:56;;;;;;;14.48;8.68;;;20.40;29.00;;;;;;10099328;28;21933;-65
2021/04/28 14:44:57;;;;;;;16.48;8.40;;;20.50;29.30;;;;;;10102627;28;20054;-63
2021/04/28 14:50:00;;;;;;;11.97;7.83;;;20.60;29.40;;;;;;10103989;28;20748;-63
2021/04/28 14:55:01;;;;;;;17.80;8.95;;;20.70;29.80;;;;;;10100356;28;20488;-63
2021/04/28 15:00:04;;;;;;;13.70;7.82;;;20.80;29.80;;;;;;10101468;28;20067;-61
2021/04/28 15:05:08;;;;;;;11.77;8.07;;;20.70;29.60;;;;;;10101004;28;20137;-63
2021/04/28 15:10:10;;;;;;;14.43;8.23;;;20.60;29.90;;;;;;10100649;28;20795;-62
2021/04/28 15:15:11;;;;;;;;;;;20.60;29.70;;;;;;10110030;28;20121;-62
2021/04/28 15:20:14;;;;;;;11.40;7.20;;;20.40;30.00;;;;;;10102010;28;20266;-63
2021/04/28 15:25:16;;;;;;;16.48;7.45;;;20.30;30.00;;;;;;10103493;28;20051;-65
2021/04/28 15:30:17;;;;;;;23.13;6.80;;;20.10;35.40;;;;;;10103989;28;20082;-63
2021/04/28 15:35:19;;;;;;;32.08;8.38;;;20.00;37.20;;;;;;10103958;28;20834;-63
2021/04/28 15:40:21;;;;;;;;;;;19.40;38.30;;;;;;10100528;28;20724;-65
2021/04/28 15:45:22;;;;;;;18.50;7.72;;;19.00;40.40;;;;;;10097168;28;21005;-65
2021/04/28 15:50:25;;;;;;;18.67;8.20;;;18.70;40.90;;;;;;10096297;28;20073;-63
2021/04/28 15:55:26;;;;;;;14.30;7.38;;;18.50;42.00;;;;;;10104502;28;21279;-63
2021/04/28 16:00:28;;;;;;;15.90;7.40;;;18.50;42.20;;;;;;10099013;28;20065;-64
2021/04/28 16:05:30;;;;;;;15.53;6.47;;;18.50;42.40;;;;;;10096293;28;20723;-64
2021/04/28 16:10:31;;;;;;;;;;;18.40;42.60;;;;;;10097754;28;21300;-64
2021/04/28 16:15:33;;;;;;;16.23;7.07;;;18.00;43.50;;;;;;10095094;28;21710;-62
2021/04/28 16:20:35;;;;;;;19.98;7.30;;;17.70;44.50;;;;;;10097860;28;20047;-63
2021/04/28 16:25:36;;;;;;;;;;;17.40;45.20;;;;;;10098070;28;20125;-64
2021/04/28 16:30:38;;;;;;;13.48;5.88;;;17.40;45.80;;;;;;10095373;28;20708;-64
2021/04/28 16:35:40;;;;;;;11.98;6.32;;;17.30;46.30;;;;;;10096618;28;22740;-64
2021/04/28 16:40:41;;;;;;;11.90;5.95;;;17.30;46.60;;;;;;10097399;28;20118;-64
2021/04/28 16:45:43;;;;;;;15.25;5.82;;;17.30;46.80;;;;;;10099600;28;20991;-64
2021/04/28 16:50:45;;;;;;;19.30;6.72;;;17.10;46.90;;;;;;10102914;28;20051;-63
2021/04/28 16:55:47;;;;;;;16.00;5.70;;;16.90;47.50;;;;;;10101785;28;20055;-63
2021/04/28 17:00:48;;;;;;;18.00;6.38;;;16.70;48.50;;;;;;10094533;28;20146;-65
2021/04/28 17:05:51;;;;;;;12.70;6.50;;;16.50;49.50;;;;;;10097868;28;21976;-63
2021/04/28 17:10:53;;;;;;;16.75;6.40;;;16.30;51.10;;;;;;10092860;28;20054;-65
2021/04/28 17:15:54;;;;;;;18.65;7.88;;;16.00;51.90;;;;;;10091856;28;20098;-63
2021/04/28 17:20:56;;;;;;;14.23;6.13;;;15.20;52.20;;;;;;10095788;28;20057;-64
2021/04/28 17:25:58;;;;;;;17.08;6.93;;;15.10;52.40;;;;;;10093704;28;20051;-62
2021/04/28 17:30:59;;;;;;;18.08;7.32;;;15.60;53.60;;;;;;10095997;28;20050;-63
2021/04/28 17:36:02;;;;;;;13.80;7.82;;;15.40;54.90;;;;;;10092849;28;20061;-64
2021/04/28 17:41:05;;;;;;;23.98;11.07;;;15.10;56.70;;;;;;10094337;28;21460;-63
2021/04/28 17:46:06;;;;;;;27.05;9.52;;;15.10;57.10;;;;;;10093183;28;20963;-63
2021/04/28 17:51:09;;;;;;;18.10;7.35;;;14.80;57.20;;;;;;10095890;28;21827;-62
2021/04/28 17:56:13;;;;;;;18.10;7.68;;;14.90;56.50;;;;;;10100648;28;20476;-63
2021/04/28 18:01:15;;;;;;;14.18;7.90;;;15.00;55.90;;;;;;10104907;28;20157;-64
2021/04/28 18:06:18;;;;;;;15.95;6.90;;;15.00;50.90;;;;;;10105317;28;22100;-63
2021/04/28 18:11:19;;;;;;;13.45;7.28;;;14.90;46.10;;;;;;10104059;28;20050;-66
2021/04/28 18:16:22;;;;;;;16.48;7.75;;;14.60;48.50;;;;;;10113197;28;20827;-62
2021/04/28 18:21:24;;;;;;;16.52;7.80;;;14.60;45.90;;;;;;10112645;28;20520;-59
2021/04/28 18:26:26;;;;;;;15.30;8.63;;;14.60;46.20;;;;;;10107726;28;20058;-61
2021/04/28 18:31:28;;;;;;;12.40;7.80;;;13.10;45.70;;;;;;10107555;28;21428;-64
2021/04/28 18:36:31;;;;;;;12.48;8.07;;;14.20;47.20;;;;;;10108469;28;20846;-63
2021/04/28 18:41:32;;;;;;;;;;;13.90;48.20;;;;;;10114286;28;20061;-62
2021/04/28 18:46:34;;;;;;;26.98;11.10;;;13.70;49.40;;;;;;10109164;28;20562;-60
2021/04/28 18:51:36;;;;;;;18.42;8.63;;;13.50;50.90;;;;;;10102572;28;20059;-62
2021/04/28 18:56:38;;;;;;;15.15;8.57;;;13.40;51.60;;;;;;10105896;28;20215;-64
2021/04/28 19:01:40;;;;;;;17.60;8.73;;;13.30;52.20;;;;;;10106341;28;20078;-60
2021/04/28 19:06:42;;;;;;;14.60;9.40;;;13.10;52.90;;;;;;10103828;28;21211;-62
2021/04/28 19:11:43;;;;;;;15.68;9.15;;;13.10;53.20;;;;;;10100466;28;20066;-62
2021/04/28 19:16:45;;;;;;;17.40;9.75;;;13.10;53.90;;;;;;10099321;28;21518;-60
2021/04/28 19:21:48;;;;;;;13.73;8.48;;;13.00;54.10;;;;;;10096059;28;20109;-60
2021/04/28 19:26:51;;;;;;;;;;;13.00;55.00;;;;;;10098644;28;22116;-61
2021/04/28 19:31:52;;;;;;;19.48;9.45;;;11.80;54.10;;;;;;10096515;28;20016;-62
2021/04/28 19:36:54;;;;;;;18.17;8.93;;;12.90;55.20;;;;;;10096425;28;20673;-62
2021/04/28 19:41:56;;;;;;;21.67;9.75;;;12.80;55.50;;;;;;10095646;28;20059;-60
2021/04/28 19:46:58;;;;;;;14.57;7.72;;;12.70;56.60;;;;;;10094646;28;21801;-61
2021/04/28 19:52:00;;;;;;;17.10;8.27;;;12.60;56.20;;;;;;10098419;28;20171;-62
2021/04/28 19:57:01;;;;;;;25.17;10.37;;;12.40;69.10;;;;;;10097817;28;20058;-62
2021/04/28 20:02:03;;;;;;;19.48;10.82;;;12.20;67.30;;;;;;10098346;28;20050;-63
2021/04/28 20:07:05;;;;;;;18.90;9.15;;;12.00;73.00;;;;;;10100320;28;20077;-62
2021/04/28 20:12:07;;;;;;;19.13;10.60;;;11.80;74.00;;;;;;10098108;28;20111;-63
2021/04/28 20:17:08;;;;;;;22.90;11.07;;;11.70;74.30;;;;;;10100110;28;20547;-62
2021/04/28 20:22:11;;;;;;;16.58;9.98;;;11.60;75.60;;;;;;10098643;28;20182;-63
2021/04/28 20:27:12;;;;;;;16.02;10.32;;;11.60;76.20;;;;;;10097407;28;20042;-61
2021/04/28 20:32:14;;;;;;;24.50;11.43;;;11.50;78.20;;;;;;10098268;28;20133;-62
2021/04/28 20:37:16;;;;;;;15.18;9.23;;;11.30;79.40;;;;;;10137179;28;20047;-61
2021/04/28 20:42:18;;;;;;;18.40;9.27;;;11.30;76.20;;;;;;10234407;28;20173;-63
2021/04/28 20:47:19;;;;;;;22.85;9.85;;;11.20;73.80;;;;;;10174385;28;20896;-62
2021/04/28 20:52:21;;;;;;;12.82;7.93;;;12.40;74.30;;;;;;10174033;28;20077;-60
2021/04/28 20:57:22;;;;;;;18.80;8.70;;;10.90;73.50;;;;;;10173194;28;20534;-61
2021/04/28 21:02:24;;;;;;;15.40;7.93;;;10.70;73.50;;;;;;10171363;28;20082;-61
2021/04/28 21:07:26;;;;;;;16.98;7.93;;;10.50;73.30;;;;;;10170639;28;20054;-62
2021/04/28 21:12:28;;;;;;;13.88;8.15;;;10.40;73.30;;;;;;10171508;28;20551;-62
2021/04/28 21:17:29;;;;;;;14.95;7.70;;;10.30;73.00;;;;;;10169187;28;20039;-62
2021/04/28 21:22:32;;;;;;;14.00;8.02;;;10.40;72.80;;;;;;10169247;28;20229;-62
2021/04/28 21:27:35;;;;;;;;;;;10.40;72.40;;;;;;10171507;28;20059;-62
2021/04/28 21:32:37;;;;;;;15.85;7.97;;;10.40;71.90;;;;;;10177076;28;19937;-62
2021/04/28 21:37:39;;;;;;;15.45;8.32;;;10.50;71.10;;;;;;10179476;28;21871;-62
2021/04/28 21:42:41;;;;;;;17.98;8.38;;;10.60;70.30;;;;;;10104453;28;20059;-62
2021/04/28 21:47:43;;;;;;;14.82;7.78;;;10.70;69.20;;;;;;10089593;28;21854;-63
2021/04/28 21:52:45;;;;;;;11.48;8.10;;;10.70;69.10;;;;;;10103007;28;20058;-62
2021/04/28 21:57:47;;;;;;;15.33;7.93;;;10.80;69.20;;;;;;10106402;28;20562;-63
2021/04/28 22:02:48;;;;;;;16.17;8.07;;;10.70;69.20;;;;;;10107017;28;21200;-60
2021/04/28 22:07:50;;;;;;;14.05;7.75;;;10.70;69.40;;;;;;10104231;28;21398;-62
2021/04/28 22:12:52;;;;;;;21.00;8.20;;;10.70;69.60;;;;;;10103121;28;20054;-61
2021/04/28 22:17:53;;;;;;;15.48;8.43;;;10.70;69.80;;;;;;10102434;28;20137;-61
2021/04/28 22:22:55;;;;;;;15.20;8.40;;;10.70;70.00;;;;;;10105682;28;20718;-59
2021/04/28 22:27:56;;;;;;;14.02;7.32;;;10.70;70.20;;;;;;10100210;28;20193;-62
2021/04/28 22:32:58;;;;;;;14.48;6.88;;;10.60;69.90;;;;;;10102761;28;20046;-60
2021/04/28 22:38:00;;;;;;;17.10;8.88;;;10.30;75.80;;;;;;10105563;28;20177;-61
2021/04/28 22:43:01;;;;;;;15.47;10.03;;;10.50;72.90;;;;;;10114163;28;20759;-60
2021/04/28 22:48:03;;;;;;;14.48;8.95;;;10.20;77.40;;;;;;10119928;28;20051;-61
2021/04/28 22:53:05;;;;;;;17.75;10.15;;;10.00;79.30;;;;;;10119317;28;21009;-61
2021/04/28 22:58:07;;;;;;;14.67;8.63;;;10.00;79.00;;;;;;10115780;28;20044;-62
2021/04/28 23:03:09;;;;;;;15.02;9.52;;;9.90;79.40;;;;;;10118172;28;20755;-64
2021/04/28 23:08:11;;;;;;;16.15;9.02;;;10.00;79.60;;;;;;10111180;28;20818;-63
2021/04/28 23:13:12;;;;;;;29.80;13.47;;;10.00;81.10;;;;;;10113261;28;21852;-62
2021/04/28 23:18:14;;;;;;;34.47;15.82;;;9.70;88.30;;;;;;10111853;28;20058;-64
2021/04/28 23:23:16;;;;;;;41.10;17.92;;;9.00;92.20;;;;;;10113021;28;20046;-64
2021/04/28 23:28:17;;;;;;;48.93;22.77;;;8.40;99.10;;;;;;10113166;28;20177;-64
2021/04/28 23:33:18;;;;;;;49.25;21.35;;;8.10;97.40;;;;;;10118240;28;20051;-65
2021/04/28 23:38:21;;;;;;;71.05;25.02;;;7.60;99.70;;;;;;10109109;28;20436;-64
2021/04/28 23:43:22;;;;;;;72.07;27.13;;;7.60;99.90;;;;;;10112265;28;20047;-65
2021/04/28 23:48:23;;;;;;;65.15;25.65;;;7.40;99.90;;;;;;10115809;28;21379;-66
2021/04/28 23:53:25;;;;;;;82.68;27.58;;;6.80;99.90;;;;;;10113121;28;20054;-66
2021/04/28 23:58:27;;;;;;;84.53;32.55;;;7.10;99.90;;;;;;10114984;28;20059;-66
